createdAt,value
2023-04-05T00:05:43.430Z,7.88
2023-04-05T00:12:25.894Z,6.78
2023-04-05T00:19:08.970Z,8.02
2023-04-05T00:25:51.244Z,9.13
2023-04-05T00:32:33.529Z,8.18
2023-04-05T00:39:16.076Z,8.23
2023-04-05T00:45:58.478Z,8.50
2023-04-05T00:52:41.672Z,9.48
2023-04-05T00:59:24.103Z,7.60
2023-04-05T01:06:18.366Z,8.20
2023-04-05T01:13:01.246Z,8.68
2023-04-05T01:19:48.134Z,7.40
2023-04-05T01:27:05.779Z,8.20
2023-04-05T01:33:58.769Z,7.47
2023-04-05T01:40:41.781Z,8.30
2023-04-05T01:47:24.725Z,8.40
2023-04-05T01:54:07.114Z,7.82
2023-04-05T02:00:49.425Z,8.07
2023-04-05T02:07:31.752Z,8.15
2023-04-05T02:14:14.237Z,7.00
2023-04-05T02:21:05.140Z,7.13
2023-04-05T02:27:48.548Z,6.75
2023-04-05T02:34:31.127Z,8.50
2023-04-05T02:41:14.024Z,8.35
2023-04-05T02:47:56.396Z,7.28
2023-04-05T02:54:39.077Z,7.57
2023-04-05T03:01:22.595Z,7.68
2023-04-05T03:08:05.648Z,8.45
2023-04-05T03:14:49.034Z,8.55
2023-04-05T03:21:35.665Z,8.13
2023-04-05T03:28:25.989Z,8.10
2023-04-05T03:35:13.157Z,8.65
2023-04-05T03:41:58.944Z,8.18
2023-04-05T03:48:41.324Z,8.20
2023-04-05T03:55:25.118Z,7.85
2023-04-05T04:02:08.361Z,8.45
2023-04-05T04:08:51.327Z,7.80
2023-04-05T04:15:33.798Z,9.38
2023-04-05T04:22:33.028Z,7.80
2023-04-05T04:29:46.611Z,9.43
2023-04-05T04:36:46.505Z,8.30
2023-04-05T04:43:49.291Z,7.93
2023-04-05T04:50:44.509Z,7.82
2023-04-05T04:57:27.084Z,8.63
2023-04-05T05:04:10.434Z,7.72
2023-04-05T05:10:55.287Z,6.95
2023-04-05T05:17:39.280Z,7.38
2023-04-05T05:24:22.268Z,7.93
2023-04-05T05:31:04.926Z,7.63
2023-04-05T05:37:50.107Z,7.95
2023-04-05T05:44:32.748Z,7.65
2023-04-05T05:51:15.072Z,7.15
2023-04-05T05:57:57.367Z,7.78
2023-04-05T06:04:39.738Z,7.10
2023-04-05T06:11:24.713Z,7.95
2023-04-05T06:18:07.068Z,6.88
2023-04-05T06:24:49.940Z,6.38
2023-04-05T06:31:34.303Z,6.95
2023-04-05T06:38:16.963Z,6.47
2023-04-05T06:44:59.361Z,6.78
2023-04-05T06:51:41.672Z,5.97
2023-04-05T06:58:24.954Z,6.43
2023-04-05T07:05:08.960Z,6.32
2023-04-05T07:11:51.319Z,6.30
2023-04-05T07:18:33.685Z,5.90
2023-04-05T07:25:16.012Z,6.45
2023-04-05T07:31:58.401Z,6.05
2023-04-05T07:38:41.831Z,6.55
2023-04-05T07:45:24.228Z,5.93
2023-04-05T07:52:06.670Z,5.63
2023-04-05T07:58:50.440Z,6.72
2023-04-05T08:05:33.044Z,6.35
2023-04-05T08:12:15.382Z,5.57
2023-04-05T08:18:57.739Z,6.07
2023-04-05T08:25:42.468Z,5.45
2023-04-05T08:32:25.537Z,4.82
2023-04-05T08:39:07.906Z,4.72
2023-04-05T08:45:51.684Z,5.05
2023-04-05T08:52:37.848Z,5.40
2023-04-05T08:59:21.651Z,4.68
2023-04-05T09:06:07.540Z,4.70
2023-04-05T09:12:53.204Z,4.25
2023-04-05T09:19:35.950Z,4.32
2023-04-05T09:26:25.713Z,3.50
2023-04-05T09:33:18.646Z,3.50
2023-04-05T09:40:06.778Z,3.65
2023-04-05T09:46:49.142Z,3.47
2023-04-05T09:53:31.546Z,4.50
2023-04-05T10:00:21.969Z,4.05
2023-04-05T10:07:04.593Z,4.50
2023-04-05T10:13:49.060Z,4.78
2023-04-05T10:20:35.943Z,4.78
2023-04-05T10:27:27.828Z,4.90
2023-04-05T10:34:35.229Z,4.15
2023-04-05T10:41:17.739Z,4.15
2023-04-05T10:48:10.874Z,4.75
2023-04-05T10:54:56.572Z,4.15
2023-04-05T11:01:40.822Z,4.10
2023-04-05T11:08:23.972Z,3.53
2023-04-05T11:15:29.488Z,3.72
2023-04-05T11:22:13.034Z,3.92
2023-04-05T11:28:57.813Z,3.85
2023-04-05T11:35:40.160Z,3.95
2023-04-05T11:42:22.990Z,4.10
2023-04-05T11:49:05.425Z,4.10
2023-04-05T11:55:51.229Z,3.72
2023-04-05T12:02:35.015Z,3.75
2023-04-05T12:09:17.384Z,4.07
2023-04-05T12:16:01.547Z,3.97
2023-04-05T12:22:45.820Z,5.03
2023-04-05T12:29:28.183Z,4.20
2023-04-05T12:36:11.635Z,4.25
2023-04-05T12:43:04.960Z,4.50
2023-04-05T12:49:47.312Z,4.95
2023-04-05T12:56:30.473Z,4.45
2023-04-05T13:03:21.221Z,4.70
2023-04-05T13:10:04.434Z,4.78
2023-04-05T13:16:46.965Z,4.10
2023-04-05T13:23:29.292Z,4.45
2023-04-05T13:30:12.147Z,4.25
2023-04-05T13:36:54.480Z,3.88
2023-04-05T13:43:36.846Z,4.35
2023-04-05T13:50:19.434Z,3.83
2023-04-05T13:57:01.887Z,4.07
2023-04-05T14:03:44.478Z,4.32
2023-04-05T14:10:26.991Z,4.10
2023-04-05T14:17:11.554Z,4.53
2023-04-05T14:23:57.144Z,4.20
2023-04-05T14:30:40.786Z,4.03
2023-04-05T14:37:23.369Z,3.80
2023-04-05T14:44:06.058Z,3.97
2023-04-05T14:50:48.443Z,4.22
2023-04-05T14:57:30.878Z,4.05
2023-04-05T15:04:13.548Z,4.40
2023-04-05T15:10:56.347Z,3.55
2023-04-05T15:17:38.878Z,4.18
2023-04-05T15:24:21.376Z,4.07
2023-04-05T15:31:03.838Z,4.05
2023-04-05T15:37:46.321Z,3.55
2023-04-05T15:44:29.009Z,3.70
2023-04-05T15:51:12.116Z,3.67
2023-04-05T15:57:55.076Z,3.72
2023-04-05T16:04:39.147Z,4.13
2023-04-05T16:11:22.280Z,3.90
2023-04-05T16:18:04.996Z,3.70
2023-04-05T16:24:47.983Z,4.38
2023-04-05T16:31:30.711Z,4.55
2023-04-05T16:38:13.717Z,4.85
2023-04-05T16:44:56.937Z,4.63
2023-04-05T16:51:39.339Z,4.90
2023-04-05T16:58:21.701Z,4.55
2023-04-05T17:05:04.449Z,4.70
2023-04-05T17:11:47.097Z,4.82
2023-04-05T17:18:29.509Z,4.93
2023-04-05T17:25:11.954Z,4.88
2023-04-05T17:31:55.161Z,4.70
2023-04-05T17:38:37.561Z,5.43
2023-04-05T17:45:19.942Z,4.53
2023-04-05T17:52:03.546Z,4.93
2023-04-05T17:58:46.250Z,6.45
2023-04-05T18:05:28.781Z,5.07
2023-04-05T18:12:11.273Z,5.90
2023-04-05T18:18:53.864Z,5.38
2023-04-05T18:25:36.278Z,6.38
2023-04-05T18:32:18.778Z,5.65
2023-04-05T18:39:05.405Z,6.00
2023-04-05T18:45:48.050Z,6.88
2023-04-05T18:52:34.233Z,6.00
2023-04-05T18:59:17.366Z,5.30
2023-04-05T19:06:00.052Z,5.43
2023-04-05T19:12:43.020Z,5.43
2023-04-05T19:19:25.364Z,6.40
2023-04-05T19:26:08.118Z,6.30
2023-04-05T19:32:53.370Z,6.07
2023-04-05T19:39:36.572Z,6.43
2023-04-05T19:46:19.760Z,6.45
2023-04-05T19:53:02.313Z,6.65
2023-04-05T19:59:44.813Z,7.00
2023-04-05T20:06:27.921Z,8.38
2023-04-05T20:13:10.307Z,8.00
2023-04-05T20:19:58.975Z,8.55
2023-04-05T20:26:41.842Z,9.73
2023-04-05T20:33:46.803Z,9.30
2023-04-05T20:40:29.231Z,10.07
2023-04-05T20:47:11.649Z,8.38
2023-04-05T20:53:54.106Z,8.50
2023-04-05T21:00:36.541Z,8.80
2023-04-05T21:07:19.001Z,8.68
2023-04-05T21:14:01.867Z,8.60
2023-04-05T21:20:50.547Z,9.38
2023-04-05T21:27:33.860Z,9.07
2023-04-05T21:34:16.579Z,9.48
2023-04-05T21:40:59.005Z,10.13
2023-04-05T21:47:41.740Z,9.43
2023-04-05T21:54:24.239Z,8.85
2023-04-05T22:01:06.732Z,9.48
2023-04-05T22:07:49.378Z,8.38
2023-04-05T22:14:31.899Z,8.98
2023-04-05T22:21:14.264Z,9.75
2023-04-05T22:28:00.563Z,10.23
2023-04-05T22:34:43.428Z,10.02
2023-04-05T22:41:26.310Z,9.43
2023-04-05T22:48:08.906Z,10.35
2023-04-05T22:54:51.564Z,10.20
2023-04-05T23:01:34.103Z,10.80
2023-04-05T23:08:16.486Z,10.93
2023-04-05T23:14:58.866Z,11.68
2023-04-05T23:21:41.653Z,10.32
2023-04-05T23:28:24.010Z,9.30
2023-04-05T23:35:06.613Z,9.90
2023-04-05T23:41:49.052Z,9.88
2023-04-05T23:48:31.906Z,9.98
2023-04-05T23:55:14.327Z,9.65
